sensor_id;sensor_type;location;lat;lon;timestamp;pressure;altitude;pressure_sealevel;temperature;humidity
5905;BME280;2978;42.012;24.880;2022-08-04T00:00:14;98760.81;;;23.39;60.03
5905;BME280;2978;42.012;24.880;2022-08-04T00:02:54;98760.81;;;23.39;60.03
5905;BME280;2978;42.012;24.880;2022-08-04T00:05:29;98759.69;;;23.28;59.70
5905;BME280;2978;42.012;24.880;2022-08-04T00:10:32;98755.59;;;23.25;60.09
5905;BME280;2978;42.012;24.880;2022-08-04T00:12:59;98766.59;;;23.30;59.92
5905;BME280;2978;42.012;24.880;2022-08-04T00:15:28;98759.34;;;23.29;60.09
5905;BME280;2978;42.012;24.880;2022-08-04T00:17:59;98761.69;;;23.27;60.22
5905;BME280;2978;42.012;24.880;2022-08-04T00:20:32;98747.34;;;23.17;60.46
5905;BME280;2978;42.012;24.880;2022-08-04T00:22:59;98742.78;;;23.12;60.47
5905;BME280;2978;42.012;24.880;2022-08-04T00:25:25;98757.50;;;23.21;60.17
5905;BME280;2978;42.012;24.880;2022-08-04T00:27:51;98752.97;;;23.17;60.14
5905;BME280;2978;42.012;24.880;2022-08-04T00:30:17;98748.88;;;23.14;60.71
5905;BME280;2978;42.012;24.880;2022-08-04T00:32:42;98745.13;;;23.10;60.77
5905;BME280;2978;42.012;24.880;2022-08-04T00:35:09;98751.56;;;23.11;60.67
5905;BME280;2978;42.012;24.880;2022-08-04T00:37:36;98747.16;;;23.10;60.51
5905;BME280;2978;42.012;24.880;2022-08-04T00:40:12;98751.38;;;23.04;60.92
5905;BME280;2978;42.012;24.880;2022-08-04T00:42:47;98747.06;;;23.06;61.01
5905;BME280;2978;42.012;24.880;2022-08-04T00:53:33;98765.66;;;22.99;60.97
5905;BME280;2978;42.012;24.880;2022-08-04T01:01:30;98768.66;;;23.06;60.74
5905;BME280;2978;42.012;24.880;2022-08-04T01:06:44;98770.06;;;23.00;61.00
5905;BME280;2978;42.012;24.880;2022-08-04T01:20:08;98788.97;;;22.75;61.58
5905;BME280;2978;42.012;24.880;2022-08-04T01:22:56;98781.38;;;22.76;61.69
5905;BME280;2978;42.012;24.880;2022-08-04T01:34:15;98786.78;;;22.45;63.05
5905;BME280;2978;42.012;24.880;2022-08-04T01:40:05;98783.75;;;22.38;63.42
5905;BME280;2978;42.012;24.880;2022-08-04T01:42:32;98786.09;;;22.35;63.65
5905;BME280;2978;42.012;24.880;2022-08-04T01:45:09;98790.53;;;22.37;63.28
5905;BME280;2978;42.012;24.880;2022-08-04T01:47:37;98791.22;;;22.33;63.40
5905;BME280;2978;42.012;24.880;2022-08-04T01:50:10;98788.88;;;22.35;63.43
5905;BME280;2978;42.012;24.880;2022-08-04T01:52:37;98789.00;;;22.39;63.14
5905;BME280;2978;42.012;24.880;2022-08-04T01:55:06;98788.09;;;22.35;63.17
5905;BME280;2978;42.012;24.880;2022-08-04T01:57:36;98782.25;;;22.28;63.42
5905;BME280;2978;42.012;24.880;2022-08-04T02:00:03;98782.13;;;22.24;63.91
5905;BME280;2978;42.012;24.880;2022-08-04T02:02:29;98782.47;;;22.23;62.92
5905;BME280;2978;42.012;24.880;2022-08-04T02:04:55;98781.19;;;22.20;64.08
5905;BME280;2978;42.012;24.880;2022-08-04T02:08:01;98784.47;;;22.22;63.98
5905;BME280;2978;42.012;24.880;2022-08-04T02:13:12;98779.78;;;22.26;63.62
5905;BME280;2978;42.012;24.880;2022-08-04T02:18:32;98777.44;;;22.28;63.34
5905;BME280;2978;42.012;24.880;2022-08-04T02:21:02;98779.78;;;22.26;63.53
5905;BME280;2978;42.012;24.880;2022-08-04T02:23:37;98780.59;;;22.27;63.83
5905;BME280;2978;42.012;24.880;2022-08-04T02:26:06;98779.78;;;22.26;64.04
5905;BME280;2978;42.012;24.880;2022-08-04T02:28:47;98780.50;;;22.23;63.75
5905;BME280;2978;42.012;24.880;2022-08-04T02:36:41;98783.28;;;22.11;64.30
5905;BME280;2978;42.012;24.880;2022-08-04T02:39:09;98783.19;;;22.08;63.99
5905;BME280;2978;42.012;24.880;2022-08-04T02:41:37;98794.63;;;22.03;64.23
5905;BME280;2978;42.012;24.880;2022-08-04T02:44:06;98801.97;;;22.07;64.43
5905;BME280;2978;42.012;24.880;2022-08-04T02:46:33;98797.88;;;22.05;64.32
5905;BME280;2978;42.012;24.880;2022-08-04T02:49:02;98782.59;;;21.90;65.08
5905;BME280;2978;42.012;24.880;2022-08-04T02:51:32;98787.22;;;21.86;64.70
5905;BME280;2978;42.012;24.880;2022-08-04T02:53:59;98805.81;;;21.91;64.56
5905;BME280;2978;42.012;24.880;2022-08-04T02:56:28;98778.03;;;21.86;65.03
5905;BME280;2978;42.012;24.880;2022-08-04T02:59:03;98798.56;;;21.90;64.79
5905;BME280;2978;42.012;24.880;2022-08-04T03:01:29;98801.47;;;21.93;64.71
5905;BME280;2978;42.012;24.880;2022-08-04T03:06:57;98801.72;;;22.00;64.22
5905;BME280;2978;42.012;24.880;2022-08-04T03:30:03;98796.59;;;22.02;63.70
5905;BME280;2978;42.012;24.880;2022-08-04T04:12:45;98792.81;;;22.83;60.44
5905;BME280;2978;42.012;24.880;2022-08-04T04:21:01;98792.41;;;23.79;57.47
5905;BME280;2978;42.012;24.880;2022-08-04T04:30:05;98780.19;;;24.69;53.83
5905;BME280;2978;42.012;24.880;2022-08-04T04:38:16;98812.63;;;25.96;49.51
5905;BME280;2978;42.012;24.880;2022-08-04T04:46:14;98814.59;;;26.63;47.42
5905;BME280;2978;42.012;24.880;2022-08-04T04:51:38;98817.22;;;27.02;46.35
5905;BME280;2978;42.012;24.880;2022-08-04T04:54:40;66104.38;;;-143.09;100.00
5905;BME280;2978;42.012;24.880;2022-08-04T04:57:14;66104.38;;;-143.09;100.00
5905;BME280;2978;42.012;24.880;2022-08-04T04:59:58;73833.88;;;-143.09;46.35
5905;BME280;2978;42.012;24.880;2022-08-04T05:14:03;66104.38;;;-143.09;100.00
5905;BME280;2978;42.012;24.880;2022-08-04T05:19:19;66104.38;;;-143.09;100.00
5905;BME280;2978;42.012;24.880;2022-08-04T05:21:55;98830.41;;;29.28;40.78
5905;BME280;2978;42.012;24.880;2022-08-04T05:24:25;98830.41;;;29.28;40.78
5905;BME280;2978;42.012;24.880;2022-08-04T05:26:55;98822.91;;;28.96;41.14
5905;BME280;2978;42.012;24.880;2022-08-04T05:29:31;98832.59;;;28.95;41.05
5905;BME280;2978;42.012;24.880;2022-08-04T05:32:00;98832.38;;;29.24;40.69
5905;BME280;2978;42.012;24.880;2022-08-04T05:34:30;98827.13;;;29.23;40.19
5905;BME280;2978;42.012;24.880;2022-08-04T05:37:00;98824.59;;;29.07;40.96
5905;BME280;2978;42.012;24.880;2022-08-04T05:39:31;98821.00;;;29.14;40.68
5905;BME280;2978;42.012;24.880;2022-08-04T05:41:58;98826.97;;;29.02;40.66
5905;BME280;2978;42.012;24.880;2022-08-04T05:44:26;98830.59;;;28.99;40.86
5905;BME280;2978;42.012;24.880;2022-08-04T05:46:55;98828.81;;;28.73;41.61
5905;BME280;2978;42.012;24.880;2022-08-04T05:49:27;98826.03;;;28.76;41.48
5905;BME280;2978;42.012;24.880;2022-08-04T05:51:56;98827.94;;;28.65;42.08
5905;BME280;2978;42.012;24.880;2022-08-04T05:54:55;98815.41;;;28.66;41.95
5905;BME280;2978;42.012;24.880;2022-08-04T05:57:42;98830.78;;;28.65;41.71
5905;BME280;2978;42.012;24.880;2022-08-04T06:00:09;98824.03;;;28.37;41.61
5905;BME280;2978;42.012;24.880;2022-08-04T06:02:36;98835.25;;;28.26;42.14
5905;BME280;2978;42.012;24.880;2022-08-04T06:05:04;98836.03;;;28.23;43.14
5905;BME280;2978;42.012;24.880;2022-08-04T06:07:32;98831.13;;;28.17;42.79
5905;BME280;2978;42.012;24.880;2022-08-04T06:09:57;98831.13;;;28.17;42.79
5905;BME280;2978;42.012;24.880;2022-08-04T06:12:31;98834.44;;;28.22;42.64
5905;BME280;2978;42.012;24.880;2022-08-04T06:14:59;98829.75;;;28.00;43.52
5905;BME280;2978;42.012;24.880;2022-08-04T06:17:34;98831.25;;;27.91;43.36
5905;BME280;2978;42.012;24.880;2022-08-04T06:20:01;98834.22;;;28.01;43.81
5905;BME280;2978;42.012;24.880;2022-08-04T06:22:29;98818.47;;;28.04;43.70
5905;BME280;2978;42.012;24.880;2022-08-04T06:24:55;98825.16;;;28.25;43.12
5905;BME280;2978;42.012;24.880;2022-08-04T06:27:23;98827.31;;;28.42;42.81
5905;BME280;2978;42.012;24.880;2022-08-04T06:29:49;98826.63;;;28.52;42.86
5905;BME280;2978;42.012;24.880;2022-08-04T06:32:17;98823.84;;;28.59;42.55
5905;BME280;2978;42.012;24.880;2022-08-04T06:34:56;98824.38;;;28.75;41.84
5905;BME280;2978;42.012;24.880;2022-08-04T06:37:24;98823.69;;;28.93;41.88
5905;BME280;2978;42.012;24.880;2022-08-04T06:39:51;98828.63;;;29.03;41.88
5905;BME280;2978;42.012;24.880;2022-08-04T06:42:19;98831.13;;;29.15;41.49
5905;BME280;2978;42.012;24.880;2022-08-04T06:44:50;98830.75;;;29.20;41.74
5905;BME280;2978;42.012;24.880;2022-08-04T06:47:19;98829.56;;;29.24;41.31
5905;BME280;2978;42.012;24.880;2022-08-04T06:49:51;98821.94;;;29.35;40.92
5905;BME280;2978;42.012;24.880;2022-08-04T06:52:18;98818.34;;;29.49;40.53
5905;BME280;2978;42.012;24.880;2022-08-04T06:54:49;98826.13;;;29.69;40.38
5905;BME280;2978;42.012;24.880;2022-08-04T06:57:17;98823.34;;;29.83;40.51
5905;BME280;2978;42.012;24.880;2022-08-04T06:59:47;98836.34;;;29.92;40.82
5905;BME280;2978;42.012;24.880;2022-08-04T07:02:17;98823.38;;;30.01;41.10
5905;BME280;2978;42.012;24.880;2022-08-04T07:04:46;98820.56;;;30.19;41.41
5905;BME280;2978;42.012;24.880;2022-08-04T07:07:12;98826.66;;;30.17;41.54
5905;BME280;2978;42.012;24.880;2022-08-04T07:09:39;98819.75;;;30.18;41.78
5905;BME280;2978;42.012;24.880;2022-08-04T07:12:06;98820.19;;;30.27;41.23
5905;BME280;2978;42.012;24.880;2022-08-04T07:14:33;98825.06;;;30.37;40.88
5905;BME280;2978;42.012;24.880;2022-08-04T07:17:03;98823.47;;;30.43;41.29
5905;BME280;2978;42.012;24.880;2022-08-04T07:19:33;98818.19;;;30.38;40.84
5905;BME280;2978;42.012;24.880;2022-08-04T07:22:00;98823.47;;;30.43;40.90
5905;BME280;2978;42.012;24.880;2022-08-04T07:24:30;98809.28;;;30.36;41.07
5905;BME280;2978;42.012;24.880;2022-08-04T07:26:56;98810.50;;;30.49;40.39
5905;BME280;2978;42.012;24.880;2022-08-04T07:29:21;98813.72;;;30.55;40.55
5905;BME280;2978;42.012;24.880;2022-08-04T07:31:48;98820.63;;;30.57;40.59
5905;BME280;2978;42.012;24.880;2022-08-04T07:34:14;98823.47;;;30.61;40.62
5905;BME280;2978;42.012;24.880;2022-08-04T07:36:40;98821.81;;;30.56;40.96
5905;BME280;2978;42.012;24.880;2022-08-04T07:39:05;98824.28;;;30.47;40.15
5905;BME280;2978;42.012;24.880;2022-08-04T07:41:31;98818.59;;;30.33;40.70
5905;BME280;2978;42.012;24.880;2022-08-04T07:43:57;98821.03;;;30.42;40.69
5905;BME280;2978;42.012;24.880;2022-08-04T07:46:24;98829.53;;;30.42;40.43
5905;BME280;2978;42.012;24.880;2022-08-04T07:48:50;98831.16;;;30.46;39.84
5905;BME280;2978;42.012;24.880;2022-08-04T07:51:16;98825.06;;;30.51;39.74
5905;BME280;2978;42.012;24.880;2022-08-04T07:53:43;98817.78;;;30.50;40.96
5905;BME280;2978;42.012;24.880;2022-08-04T07:56:09;98835.63;;;30.47;40.85
5905;BME280;2978;42.012;24.880;2022-08-04T07:58:35;98828.31;;;30.29;41.25
5905;BME280;2978;42.012;24.880;2022-08-04T08:01:00;98835.22;;;30.35;41.01
5905;BME280;2978;42.012;24.880;2022-08-04T08:03:26;98819.38;;;30.30;41.37
5905;BME280;2978;42.012;24.880;2022-08-04T08:05:52;98824.22;;;30.23;40.63
5905;BME280;2978;42.012;24.880;2022-08-04T08:08:18;98825.84;;;30.24;40.61
5905;BME280;2978;42.012;24.880;2022-08-04T08:10:46;98823.41;;;30.19;40.82
5905;BME280;2978;42.012;24.880;2022-08-04T08:13:13;98825.47;;;30.25;38.97
5905;BME280;2978;42.012;24.880;2022-08-04T08:15:39;98821.44;;;30.33;39.02
5905;BME280;2978;42.012;24.880;2022-08-04T08:18:05;98812.09;;;30.29;38.10
5905;BME280;2978;42.012;24.880;2022-08-04T08:20:30;98813.34;;;30.32;37.54
5905;BME280;2978;42.012;24.880;2022-08-04T08:22:57;98813.34;;;30.42;38.51
5905;BME280;2978;42.012;24.880;2022-08-04T08:25:23;98814.94;;;30.36;38.58
5905;BME280;2978;42.012;24.880;2022-08-04T08:27:49;98809.69;;;30.49;38.92
5905;BME280;2978;42.012;24.880;2022-08-04T08:30:14;98813.72;;;30.69;37.81
5905;BME280;2978;42.012;24.880;2022-08-04T08:32:40;98811.69;;;30.69;37.61
5905;BME280;2978;42.012;24.880;2022-08-04T08:35:05;98802.34;;;30.58;37.60
5905;BME280;2978;42.012;24.880;2022-08-04T08:37:47;98812.91;;;30.61;38.18
5905;BME280;2978;42.012;24.880;2022-08-04T08:40:32;98810.09;;;30.54;38.56
5905;BME280;2978;42.012;24.880;2022-08-04T08:51:43;98797.09;;;30.67;36.42
5905;BME280;2978;42.012;24.880;2022-08-04T09:05:16;98792.25;;;30.50;35.14
5905;BME280;2978;42.012;24.880;2022-08-04T09:13:04;98787.31;;;31.00;34.47
5905;BME280;2978;42.012;24.880;2022-08-04T09:18:44;98787.59;;;31.41;34.80
5905;BME280;2978;42.012;24.880;2022-08-04T09:21:36;98780.19;;;31.68;34.03
5905;BME280;2978;42.012;24.880;2022-08-04T09:24:12;98775.22;;;31.79;33.60
5905;BME280;2978;42.012;24.880;2022-08-04T09:26:44;98775.16;;;31.86;34.01
5905;BME280;2978;42.012;24.880;2022-08-04T09:29:56;98762.19;;;31.85;33.89
5905;BME280;2978;42.012;24.880;2022-08-04T09:35:28;98763.84;;;31.79;33.74
5905;BME280;2978;42.012;24.880;2022-08-04T09:51:57;98763.00;;;31.78;30.93
5905;BME280;2978;42.012;24.880;2022-08-04T09:56:59;98747.25;;;31.67;30.64
5905;BME280;2978;42.012;24.880;2022-08-04T09:59:49;98758.16;;;31.79;30.20
5905;BME280;2978;42.012;24.880;2022-08-04T10:02:20;98754.41;;;31.92;29.49
5905;BME280;2978;42.012;24.880;2022-08-04T10:04:48;98746.66;;;32.00;29.30
5905;BME280;2978;42.012;24.880;2022-08-04T10:12:37;98744.53;;;32.11;29.89
5905;BME280;2978;42.012;24.880;2022-08-04T10:15:13;98751.84;;;32.12;29.71
5905;BME280;2978;42.012;24.880;2022-08-04T10:28:55;98730.75;;;32.06;29.50
5905;BME280;2978;42.012;24.880;2022-08-04T10:31:27;98723.72;;;32.21;30.24
5905;BME280;2978;42.012;24.880;2022-08-04T10:34:02;98726.84;;;32.37;29.94
5905;BME280;2978;42.012;24.880;2022-08-04T10:36:40;98709.72;;;32.44;29.16
5905;BME280;2978;42.012;24.880;2022-08-04T10:39:13;98715.16;;;32.69;29.76
5905;BME280;2978;42.012;24.880;2022-08-04T10:41:53;98709.25;;;32.86;28.99
5905;BME280;2978;42.012;24.880;2022-08-04T10:47:32;98706.59;;;33.06;29.26
5905;BME280;2978;42.012;24.880;2022-08-04T10:50:01;98709.56;;;33.29;29.09
5905;BME280;2978;42.012;24.880;2022-08-04T10:52:33;98701.66;;;33.44;29.19
5905;BME280;2978;42.012;24.880;2022-08-04T10:55:07;98710.00;;;33.58;28.99
5905;BME280;2978;42.012;24.880;2022-08-04T10:57:39;98707.66;;;33.53;26.93
5905;BME280;2978;42.012;24.880;2022-08-04T11:00:09;98716.72;;;33.41;27.20
5905;BME280;2978;42.012;24.880;2022-08-04T11:05:54;98715.31;;;33.26;27.26
5905;BME280;2978;42.012;24.880;2022-08-04T11:08:24;98697.91;;;33.17;26.79
5905;BME280;2978;42.012;24.880;2022-08-04T11:16:48;98689.91;;;33.04;28.29
5905;BME280;2978;42.012;24.880;2022-08-04T11:22:13;98681.38;;;33.04;27.16
5905;BME280;2978;42.012;24.880;2022-08-04T11:27:39;98677.31;;;33.06;28.21
5905;BME280;2978;42.012;24.880;2022-08-04T11:30:08;98687.22;;;32.90;26.71
5905;BME280;2978;42.012;24.880;2022-08-04T11:32:51;98678.84;;;32.76;27.14
5905;BME280;2978;42.012;24.880;2022-08-04T11:38:20;98678.28;;;32.88;27.87
5905;BME280;2978;42.012;24.880;2022-08-04T11:40:48;98675.81;;;32.90;27.49
5905;BME280;2978;42.012;24.880;2022-08-04T11:43:21;98663.97;;;32.95;27.67
5905;BME280;2978;42.012;24.880;2022-08-04T11:45:53;98667.50;;;33.07;28.20
5905;BME280;2978;42.012;24.880;2022-08-04T11:48:32;98661.25;;;33.19;27.89
5905;BME280;2978;42.012;24.880;2022-08-04T11:51:00;98658.38;;;33.19;28.18
5905;BME280;2978;42.012;24.880;2022-08-04T11:53:30;98655.16;;;33.17;28.07
5905;BME280;2978;42.012;24.880;2022-08-04T11:56:01;98664.19;;;33.12;26.40
5905;BME280;2978;42.012;24.880;2022-08-04T11:58:27;98649.25;;;33.00;27.36
5905;BME280;2978;42.012;24.880;2022-08-04T12:00:54;98647.13;;;33.08;27.88
5905;BME280;2978;42.012;24.880;2022-08-04T12:03:33;98646.22;;;33.15;27.13
5905;BME280;2978;42.012;24.880;2022-08-04T12:11:37;98638.53;;;33.12;26.93
5905;BME280;2978;42.012;24.880;2022-08-04T12:17:03;98627.50;;;33.14;26.64
5905;BME280;2978;42.012;24.880;2022-08-04T12:19:34;98634.75;;;33.18;26.88
5905;BME280;2978;42.012;24.880;2022-08-04T12:22:15;98625.91;;;33.13;26.98
5905;BME280;2978;42.012;24.880;2022-08-04T12:24:50;98627.09;;;33.15;26.26
5905;BME280;2978;42.012;24.880;2022-08-04T12:27:20;98620.84;;;33.24;26.65
5905;BME280;2978;42.012;24.880;2022-08-04T12:29:48;98630.25;;;33.21;26.74
5905;BME280;2978;42.012;24.880;2022-08-04T12:32:23;98625.63;;;33.30;26.39
5905;BME280;2978;42.012;24.880;2022-08-04T12:37:45;98615.34;;;33.66;26.51
5905;BME280;2978;42.012;24.880;2022-08-04T12:40:17;98609.56;;;33.70;26.27
5905;BME280;2978;42.012;24.880;2022-08-04T12:45:23;98613.00;;;34.07;26.52
5905;BME280;2978;42.012;24.880;2022-08-04T12:47:51;98604.38;;;34.11;26.22
5905;BME280;2978;42.012;24.880;2022-08-04T12:50:19;98599.00;;;34.17;26.11
5905;BME280;2978;42.012;24.880;2022-08-04T12:52:53;98604.31;;;34.15;26.35
5905;BME280;2978;42.012;24.880;2022-08-04T12:55:22;98609.22;;;34.14;25.76
5905;BME280;2978;42.012;24.880;2022-08-04T12:57:50;98606.34;;;34.14;25.65
5905;BME280;2978;42.012;24.880;2022-08-04T13:00:27;98612.47;;;33.89;25.38
5905;BME280;2978;42.012;24.880;2022-08-04T13:02:53;98600.41;;;33.82;25.98
5905;BME280;2978;42.012;24.880;2022-08-04T13:05:24;98599.00;;;33.67;25.97
5905;BME280;2978;42.012;24.880;2022-08-04T13:07:52;98591.63;;;33.43;26.02
5905;BME280;2978;42.012;24.880;2022-08-04T13:10:21;98583.63;;;33.34;26.52
5905;BME280;2978;42.012;24.880;2022-08-04T13:12:55;98597.63;;;33.52;26.39
5905;BME280;2978;42.012;24.880;2022-08-04T13:15:22;98588.47;;;33.64;25.62
5905;BME280;2978;42.012;24.880;2022-08-04T13:18:03;98589.66;;;33.66;26.09
5905;BME280;2978;42.012;24.880;2022-08-04T13:20:31;98591.59;;;33.73;26.58
5905;BME280;2978;42.012;24.880;2022-08-04T13:23:12;98583.84;;;33.73;25.82
5905;BME280;2978;42.012;24.880;2022-08-04T13:25:45;98592.16;;;33.87;25.66
5905;BME280;2978;42.012;24.880;2022-08-04T13:28:15;98582.91;;;33.80;25.84
5905;BME280;2978;42.012;24.880;2022-08-04T13:30:48;98591.28;;;33.90;25.83
5905;BME280;2978;42.012;24.880;2022-08-04T13:33:18;98591.47;;;33.80;25.05
5905;BME280;2978;42.012;24.880;2022-08-04T13:35:45;98592.59;;;33.86;24.46
5905;BME280;2978;42.012;24.880;2022-08-04T13:38:12;98593.00;;;33.84;24.92
5905;BME280;2978;42.012;24.880;2022-08-04T13:40:40;98602.00;;;33.83;24.82
5905;BME280;2978;42.012;24.880;2022-08-04T13:43:06;98591.25;;;33.67;24.16
5905;BME280;2978;42.012;24.880;2022-08-04T13:45:34;98592.84;;;33.72;25.32
5905;BME280;2978;42.012;24.880;2022-08-04T13:48:01;98593.19;;;33.74;25.39
5905;BME280;2978;42.012;24.880;2022-08-04T13:50:29;98580.28;;;33.66;25.13
5905;BME280;2978;42.012;24.880;2022-08-04T13:53:00;98584.28;;;33.72;24.41
5905;BME280;2978;42.012;24.880;2022-08-04T13:55:29;98585.75;;;33.80;24.90
5905;BME280;2978;42.012;24.880;2022-08-04T13:58:18;98585.69;;;33.83;24.88
5905;BME280;2978;42.012;24.880;2022-08-04T14:03:34;98578.88;;;34.00;25.36
5905;BME280;2978;42.012;24.880;2022-08-04T14:06:12;98579.19;;;34.06;25.16
5905;BME280;2978;42.012;24.880;2022-08-04T14:11:17;98581.44;;;33.95;24.99
5905;BME280;2978;42.012;24.880;2022-08-04T14:13:43;98582.03;;;33.83;25.00
5905;BME280;2978;42.012;24.880;2022-08-04T14:16:13;98579.19;;;33.83;25.38
5905;BME280;2978;42.012;24.880;2022-08-04T14:18:39;98568.50;;;33.87;25.45
5905;BME280;2978;42.012;24.880;2022-08-04T14:21:16;98566.75;;;33.93;25.46
5905;BME280;2978;42.012;24.880;2022-08-04T14:28:43;98571.53;;;34.03;25.16
5905;BME280;2978;42.012;24.880;2022-08-04T14:31:09;98564.78;;;34.13;24.89
5905;BME280;2978;42.012;24.880;2022-08-04T14:33:36;98572.09;;;34.14;23.97
5905;BME280;2978;42.012;24.880;2022-08-04T14:36:02;98568.41;;;33.94;24.46
5905;BME280;2978;42.012;24.880;2022-08-04T14:38:44;98562.66;;;33.97;25.14
5905;BME280;2978;42.012;24.880;2022-08-04T14:41:11;98562.31;;;33.92;24.77
5905;BME280;2978;42.012;24.880;2022-08-04T14:43:47;98555.75;;;33.95;25.50
5905;BME280;2978;42.012;24.880;2022-08-04T14:46:13;98559.97;;;34.10;25.41
5905;BME280;2978;42.012;24.880;2022-08-04T14:48:58;98557.03;;;34.33;24.53
5905;BME280;2978;42.012;24.880;2022-08-04T14:51:24;98555.13;;;34.50;24.38
5905;BME280;2978;42.012;24.880;2022-08-04T14:53:50;98561.50;;;34.57;24.42
5905;BME280;2978;42.012;24.880;2022-08-04T14:56:16;98555.94;;;34.50;24.35
5905;BME280;2978;42.012;24.880;2022-08-04T14:58:41;98560.13;;;34.42;23.87
5905;BME280;2978;42.012;24.880;2022-08-04T15:01:09;98555.31;;;34.39;23.85
5905;BME280;2978;42.012;24.880;2022-08-04T15:03:38;98543.00;;;34.42;24.49
5905;BME280;2978;42.012;24.880;2022-08-04T15:06:05;98548.00;;;34.38;24.57
5905;BME280;2978;42.012;24.880;2022-08-04T15:08:31;98547.25;;;34.34;23.94
5905;BME280;2978;42.012;24.880;2022-08-04T15:10:57;98545.03;;;34.22;25.03
5905;BME280;2978;42.012;24.880;2022-08-04T15:13:25;98545.91;;;34.19;24.40
5905;BME280;2978;42.012;24.880;2022-08-04T15:15:51;98549.25;;;34.14;25.03
5905;BME280;2978;42.012;24.880;2022-08-04T15:18:17;98546.19;;;34.05;24.59
5905;BME280;2978;42.012;24.880;2022-08-04T15:20:43;98547.44;;;34.04;24.42
5905;BME280;2978;42.012;24.880;2022-08-04T15:23:08;98551.16;;;34.01;24.51
5905;BME280;2978;42.012;24.880;2022-08-04T15:25:46;98547.13;;;33.98;24.62
5905;BME280;2978;42.012;24.880;2022-08-04T15:28:18;98537.34;;;33.99;24.33
5905;BME280;2978;42.012;24.880;2022-08-04T15:30:48;98543.09;;;33.96;23.96
5905;BME280;2978;42.012;24.880;2022-08-04T15:33:14;98550.13;;;33.88;23.60
5905;BME280;2978;42.012;24.880;2022-08-04T15:35:43;98540.97;;;33.77;24.25
5905;BME280;2978;42.012;24.880;2022-08-04T15:38:32;98544.34;;;33.72;23.92
5905;BME280;2978;42.012;24.880;2022-08-04T15:41:15;98543.22;;;33.66;24.00
5905;BME280;2978;42.012;24.880;2022-08-04T15:47:09;98546.81;;;33.47;24.44
5905;BME280;2978;42.012;24.880;2022-08-04T15:49:35;98540.75;;;33.41;24.00
5905;BME280;2978;42.012;24.880;2022-08-04T15:52:11;98542.69;;;33.48;24.07
5905;BME280;2978;42.012;24.880;2022-08-04T15:54:38;98548.47;;;33.44;24.63
5905;BME280;2978;42.012;24.880;2022-08-04T15:57:05;98547.25;;;33.42;24.89
5905;BME280;2978;42.012;24.880;2022-08-04T15:59:56;98543.16;;;33.43;24.74
5905;BME280;2978;42.012;24.880;2022-08-04T16:07:59;98550.72;;;33.30;25.03
5905;BME280;2978;42.012;24.880;2022-08-04T16:13:13;98551.44;;;33.11;25.22
5905;BME280;2978;42.012;24.880;2022-08-04T16:15:43;98546.94;;;33.10;25.85
5905;BME280;2978;42.012;24.880;2022-08-04T16:18:11;98551.75;;;33.16;25.63
5905;BME280;2978;42.012;24.880;2022-08-04T16:20:37;98541.25;;;33.10;25.93
5905;BME280;2978;42.012;24.880;2022-08-04T16:23:18;98542.97;;;33.03;25.98
5905;BME280;2978;42.012;24.880;2022-08-04T16:25:46;98537.44;;;32.93;26.42
5905;BME280;2978;42.012;24.880;2022-08-04T16:31:00;98544.03;;;32.86;26.33
5905;BME280;2978;42.012;24.880;2022-08-04T16:33:30;98542.59;;;32.71;27.02
5905;BME280;2978;42.012;24.880;2022-08-04T16:35:58;98539.09;;;32.60;27.17
5905;BME280;2978;42.012;24.880;2022-08-04T16:38:24;98541.22;;;32.53;27.68
5905;BME280;2978;42.012;24.880;2022-08-04T16:41:00;98551.09;;;32.41;27.27
5905;BME280;2978;42.012;24.880;2022-08-04T16:43:30;98549.56;;;32.33;27.37
5905;BME280;2978;42.012;24.880;2022-08-04T16:46:04;98546.78;;;32.26;27.42
5905;BME280;2978;42.012;24.880;2022-08-04T16:48:32;98547.72;;;32.16;27.79
5905;BME280;2978;42.012;24.880;2022-08-04T16:53:45;98543.72;;;32.10;27.66
5905;BME280;2978;42.012;24.880;2022-08-04T16:56:13;98547.41;;;32.07;27.74
5905;BME280;2978;42.012;24.880;2022-08-04T16:58:40;98551.50;;;32.06;29.53
5905;BME280;2978;42.012;24.880;2022-08-04T17:01:10;98549.94;;;31.98;29.87
5905;BME280;2978;42.012;24.880;2022-08-04T17:03:37;98549.69;;;31.78;31.73
5905;BME280;2978;42.012;24.880;2022-08-04T17:06:11;98554.38;;;31.58;32.54
5905;BME280;2978;42.012;24.880;2022-08-04T17:08:38;98550.53;;;31.31;33.60
5905;BME280;2978;42.012;24.880;2022-08-04T17:11:05;98559.56;;;31.16;33.99
5905;BME280;2978;42.012;24.880;2022-08-04T17:13:53;98555.22;;;30.93;34.29
5905;BME280;2978;42.012;24.880;2022-08-04T17:16:18;98571.91;;;30.77;34.95
5905;BME280;2978;42.012;24.880;2022-08-04T17:18:53;98562.31;;;30.57;35.53
5905;BME280;2978;42.012;24.880;2022-08-04T17:21:21;98572.91;;;30.39;36.00
5905;BME280;2978;42.012;24.880;2022-08-04T17:23:50;98576.19;;;30.27;35.90
5905;BME280;2978;42.012;24.880;2022-08-04T17:26:21;98578.25;;;30.13;36.29
5905;BME280;2978;42.012;24.880;2022-08-04T17:28:48;98571.78;;;29.91;36.58
5905;BME280;2978;42.012;24.880;2022-08-04T17:31:14;98584.75;;;29.78;36.09
5905;BME280;2978;42.012;24.880;2022-08-04T17:33:47;98585.59;;;29.68;36.54
5905;BME280;2978;42.012;24.880;2022-08-04T17:36:14;98581.53;;;29.65;37.05
5905;BME280;2978;42.012;24.880;2022-08-04T17:38:45;98592.03;;;29.58;37.44
5905;BME280;2978;42.012;24.880;2022-08-04T17:41:14;98590.81;;;29.48;37.52
5905;BME280;2978;42.012;24.880;2022-08-04T17:43:50;98591.63;;;29.42;37.74
5905;BME280;2978;42.012;24.880;2022-08-04T17:53:59;98604.16;;;29.27;38.22
5905;BME280;2978;42.012;24.880;2022-08-04T17:56:43;98605.75;;;29.17;37.55
5905;BME280;2978;42.012;24.880;2022-08-04T18:04:25;98601.22;;;28.92;38.25
5905;BME280;2978;42.012;24.880;2022-08-04T18:06:52;98606.03;;;28.84;38.29
5905;BME280;2978;42.012;24.880;2022-08-04T18:09:28;98605.63;;;28.78;38.84
5905;BME280;2978;42.012;24.880;2022-08-04T18:11:55;98608.03;;;28.69;38.78
5905;BME280;2978;42.012;24.880;2022-08-04T18:14:21;98617.69;;;28.61;38.60
5905;BME280;2978;42.012;24.880;2022-08-04T18:16:47;98612.84;;;28.58;38.54
5905;BME280;2978;42.012;24.880;2022-08-04T18:19:14;98615.63;;;28.51;38.54
5905;BME280;2978;42.012;24.880;2022-08-04T18:21:41;98620.03;;;28.49;38.15
5905;BME280;2978;42.012;24.880;2022-08-04T18:24:06;98625.31;;;28.50;38.19